Time;durP1;ratioP1;P1;durP2;ratioP2;P2;SDS_P1;SDS_P2;PMS_P1;PMS_P2;Temp;Humidity;BMP_temperature;BMP_pressure;BME280_temperature;BME280_humidity;BME280_pressure;Samples;Min_cycle;Max_cycle;Signal;HPM_P1;HPM_P2
2023/04/03 00:00:35;;;;;;;8.88;1.42;;;;;;;1.05;100.00;101839.06;4938115;56;1136873;-76
2023/04/03 00:05:42;;;;;;;5.27;1.80;;;;;;;1.05;100.00;101837.77;4903436;57;1136919;-75
2023/04/03 00:10:48;;;;;;;6.13;1.97;;;;;;;0.97;100.00;101840.92;4954508;57;1136803;-75
2023/04/03 00:15:54;;;;;;;5.03;1.33;;;;;;;0.93;100.00;101837.94;4812834;58;1136717;-75
2023/04/03 00:21:00;;;;;;;6.33;1.93;;;;;;;0.93;100.00;101847.06;4898555;58;1136657;-74
2023/04/03 00:26:06;;;;;;;7.77;2.20;;;;;;;0.91;100.00;101847.11;4877996;58;1136584;-75
2023/04/03 00:31:13;;;;;;;10.70;3.70;;;;;;;0.91;100.00;101847.55;4911354;57;1136744;-75
2023/04/03 00:36:19;;;;;;;15.83;2.50;;;;;;;0.90;100.00;101847.13;4969572;57;1138792;-74
2023/04/03 00:41:25;;;;;;;3.33;1.83;;;;;;;0.90;100.00;101845.83;5037280;56;1138771;-76
2023/04/03 00:46:30;;;;;;;4.17;1.75;;;;;;;0.90;100.00;101840.19;4977908;57;1136670;-74
2023/04/03 00:51:37;;;;;;;9.30;2.00;;;;;;;0.94;100.00;101843.13;5063827;56;1136811;-74
2023/04/03 00:56:42;;;;;;;11.20;2.37;;;;;;;0.96;100.00;101843.97;4949094;58;1136618;-74
2023/04/03 01:01:49;;;;;;;7.53;2.15;;;;;;;0.86;100.00;101847.63;4941719;57;1138701;-73
2023/04/03 01:06:57;;;;;;;8.87;2.13;;;;;;;0.80;100.00;101842.94;5010785;57;1136849;-74
2023/04/03 01:12:25;;;;;;;8.67;2.10;;;;;;;0.75;100.00;101844.34;4990656;57;1136946;-74
2023/04/03 01:17:47;;;;;;;8.10;2.62;;;;;;;0.76;100.00;101847.80;4995933;57;1136734;-74
2023/04/03 01:23:12;;;;;;;11.47;4.07;;;;;;;0.73;100.00;101850.45;4930435;57;1136824;-75
2023/04/03 01:28:25;;;;;;;11.13;3.40;;;;;;;0.69;100.00;101853.53;4950884;58;1138673;-75
2023/04/03 01:33:31;;;;;;;10.58;3.27;;;;;;;0.65;100.00;101858.36;4973975;57;1138765;-74
2023/04/03 01:38:37;;;;;;;11.08;3.05;;;;;;;0.61;100.00;101856.24;5070699;56;1138730;-75
2023/04/03 01:43:42;;;;;;;11.27;2.77;;;;;;;0.63;100.00;101869.23;5090284;57;1139229;-75
2023/04/03 01:48:50;;;;;;;6.10;2.67;;;;;;;0.58;100.00;101866.73;5146711;55;1138803;-75
2023/04/03 01:53:55;;;;;;;7.73;2.43;;;;;;;0.57;100.00;101867.61;5130212;55;1136655;-75
2023/04/03 01:59:01;;;;;;;6.90;1.90;;;;;;;0.50;100.00;101876.81;4984763;57;1136643;-75
2023/04/03 02:04:07;;;;;;;8.17;2.27;;;;;;;0.50;100.00;101875.08;5034792;57;1136695;-75
2023/04/03 02:09:13;;;;;;;7.17;2.83;;;;;;;0.49;100.00;101871.19;5071048;56;1136750;-76
2023/04/03 02:14:20;;;;;;;12.27;2.53;;;;;;;0.46;100.00;101881.19;5076625;56;1153744;-75
2023/04/03 02:19:25;;;;;;;7.83;2.25;;;;;;;0.48;100.00;101881.17;5100440;56;1138761;-75
2023/04/03 02:24:31;;;;;;;6.33;2.42;;;;;;;0.52;100.00;101882.42;5100988;56;1136660;-73
2023/04/03 02:29:37;;;;;;;8.87;1.90;;;;;;;0.50;100.00;101892.43;5102127;56;1136768;-75
2023/04/03 02:34:43;;;;;;;8.10;1.90;;;;;;;0.47;100.00;101884.22;5121874;56;1136748;-74
2023/04/03 02:39:50;;;;;;;15.73;2.10;;;;;;;0.45;100.00;101889.05;5101334;56;1136785;-74
2023/04/03 02:44:56;;;;;;;5.63;2.13;;;;;;;0.38;100.00;101901.27;5092991;56;1138732;-76
2023/04/03 02:50:02;;;;;;;12.97;2.30;;;;;;;0.40;100.00;101906.02;5036857;56;1136755;-74
2023/04/03 02:55:09;;;;;;;3.80;1.80;;;;;;;0.37;100.00;101907.80;5159941;55;1138812;-75
2023/04/03 03:00:15;;;;;;;9.97;2.70;;;;;;;0.36;100.00;101904.33;5188491;55;1136732;-76
2023/04/03 03:05:21;;;;;;;7.97;2.30;;;;;;;0.28;100.00;101904.45;5124334;56;1136670;-76
2023/04/03 03:10:27;;;;;;;8.00;2.30;;;;;;;0.23;100.00;101911.88;5101691;54;1137301;-75
2023/04/03 03:15:33;;;;;;;8.08;1.95;;;;;;;0.24;100.00;101909.70;5050046;56;1136723;-72
2023/04/03 03:20:38;;;;;;;5.55;2.17;;;;;;;0.19;100.00;101916.26;5047622;56;1136765;-72
2023/04/03 03:25:44;;;;;;;6.60;2.27;;;;;;;0.14;100.00;101925.02;5053188;56;1136635;-72
2023/04/03 03:30:50;;;;;;;8.37;3.70;;;;;;;0.14;100.00;101923.28;5015164;57;1136643;-72
2023/04/03 03:35:56;;;;;;;13.27;3.97;;;;;;;0.12;100.00;101920.27;5047149;56;1136853;-77
2023/04/03 03:41:02;;;;;;;18.37;4.60;;;;;;;0.07;100.00;101928.56;5073305;56;1138708;-72
2023/04/03 03:46:09;;;;;;;13.23;2.67;;;;;;;0.05;100.00;101932.48;5099614;56;1138696;-70
2023/04/03 03:51:15;;;;;;;3.67;1.90;;;;;;;0.05;100.00;101935.08;4977544;56;1138956;-68
2023/04/03 03:56:22;;;;;;;6.58;1.72;;;;;;;0.04;100.00;101933.35;4998434;57;1136868;-68
2023/04/03 04:01:29;;;;;;;13.43;2.07;;;;;;;0.06;100.00;101933.34;4968636;56;1136768;-69
2023/04/03 04:06:35;;;;;;;3.03;1.13;;;;;;;0.06;100.00;101938.54;4964432;56;1138951;-69
2023/04/03 04:11:42;;;;;;;6.13;1.73;;;;;;;0.00;100.00;101942.92;4956115;57;1136814;-69
2023/04/03 04:16:50;;;;;;;2.80;1.30;;;;;;;-0.02;100.00;101943.41;4963866;57;1136828;-68
2023/04/03 04:21:57;;;;;;;5.90;2.03;;;;;;;-0.02;100.00;101942.55;4964350;57;1138678;-70
2023/04/03 04:27:03;;;;;;;2.77;1.20;;;;;;;-0.04;100.00;101941.70;5013312;57;1138897;-68
2023/04/03 04:32:10;;;;;;;9.43;2.30;;;;;;;-0.05;100.00;101956.88;4986743;57;1138770;-69
2023/04/03 04:37:15;;;;;;;6.23;1.60;;;;;;;-0.10;100.00;101949.55;5027706;55;1138868;-71
2023/04/03 04:42:23;;;;;;;8.48;2.50;;;;;;;-0.09;100.00;101954.73;5054019;55;1138695;-66
2023/04/03 04:47:30;;;;;;;6.17;1.80;;;;;;;-0.09;100.00;101952.14;5051021;55;1138671;-70
2023/04/03 04:52:36;;;;;;;7.70;1.80;;;;;;;-0.10;100.00;101962.55;5102003;55;1138827;-67
2023/04/03 04:57:43;;;;;;;8.53;4.10;;;;;;;-0.12;100.00;101963.00;5075054;55;1138747;-68
2023/04/03 05:02:49;;;;;;;2.23;1.33;;;;;;;-0.14;100.00;101968.66;5137538;55;1138718;-72
2023/04/03 05:07:56;;;;;;;16.65;2.80;;;;;;;-0.13;100.00;101969.08;5017475;57;1138838;-72
2023/04/03 05:13:03;;;;;;;10.97;2.13;;;;;;;-0.14;100.00;101968.66;5139317;55;1141008;-72
2023/04/03 05:18:08;;;;;;;7.80;1.80;;;;;;;-0.11;100.00;101975.99;5121640;55;1140732;-71
2023/04/03 05:23:14;;;;;;;7.85;1.85;;;;;;;-0.08;100.00;101972.50;5155412;55;1138739;-69
2023/04/03 05:28:20;;;;;;;7.87;1.27;;;;;;;-0.02;100.00;101978.95;5165230;55;1138678;-68
2023/04/03 05:33:27;;;;;;;8.87;1.80;;;;;;;0.06;100.00;101977.55;5119763;56;1139269;-69
2023/04/03 05:38:34;;;;;;;6.27;2.10;;;;;;;0.12;100.00;101982.70;5110809;55;1136754;-71
2023/04/03 05:43:40;;;;;;;5.95;1.70;;;;;;;0.13;100.00;101988.33;5118565;55;1136599;-66
2023/04/03 05:48:47;;;;;;;7.27;1.60;;;;;;;0.22;100.00;101983.01;5142620;55;1136552;-70
2023/04/03 05:54:10;;;;;;;5.03;1.80;;;;;;;0.43;100.00;101992.31;5122410;55;1136630;-71
2023/04/03 05:59:16;;;;;;;7.05;1.82;;;;;;;0.72;100.00;101997.14;5120954;55;1136619;-68
2023/04/03 06:04:23;;;;;;;8.03;2.57;;;;;;;0.92;100.00;101998.57;5074529;55;1153300;-69
2023/04/03 06:09:30;;;;;;;9.88;1.95;;;;;;;1.13;100.00;101986.98;5084038;55;1136743;-70
2023/04/03 06:14:37;;;;;;;5.92;2.60;;;;;;;1.38;100.00;101994.83;5174968;55;1136731;-70
2023/04/03 06:19:43;;;;;;;6.00;1.70;;;;;;;1.58;100.00;101998.86;5179418;55;1136623;-69
2023/04/03 06:24:48;;;;;;;4.07;2.33;;;;;;;1.73;100.00;101998.16;5099386;56;1136649;-73
2023/04/03 06:29:54;;;;;;;9.05;2.92;;;;;;;1.97;100.00;102002.53;5099811;56;1136863;-70
2023/04/03 06:35:00;;;;;;;8.90;2.20;;;;;;;2.15;100.00;102007.83;5121574;55;1136870;-71
2023/04/03 06:40:07;;;;;;;10.07;2.73;;;;;;;2.38;100.00;102013.48;5101758;55;1136612;-74
2023/04/03 06:45:13;;;;;;;5.50;1.80;;;;;;;2.55;100.00;102013.14;5115634;55;1138724;-69
2023/04/03 06:50:18;;;;;;;9.57;3.30;;;;;;;2.78;100.00;102020.03;5121446;56;1136541;-71
2023/04/03 06:55:24;;;;;;;7.60;2.07;;;;;;;2.92;100.00;102024.95;5187511;55;1183093;-67
2023/04/03 07:00:30;;;;;;;4.95;1.77;;;;;;;3.11;100.00;102027.14;5101875;56;1136912;-68
2023/04/03 07:05:36;;;;;;;4.78;1.62;;;;;;;3.28;100.00;102031.13;5188585;55;1136562;-70
2023/04/03 07:10:41;;;;;;;7.58;2.50;;;;;;;3.37;100.00;102037.43;5201395;55;1136617;-66
2023/04/03 07:15:48;;;;;;;8.63;3.23;;;;;;;3.60;100.00;102040.81;5102106;55;1136785;-72
2023/04/03 07:20:53;;;;;;;11.10;2.17;;;;;;;3.74;100.00;102046.13;5132452;56;1136840;-67
2023/04/03 07:25:59;;;;;;;8.65;1.57;;;;;;;4.03;99.60;102037.52;5178062;55;1138990;-72
2023/04/03 07:31:10;;;;;;;5.53;1.77;;;;;;;4.07;91.81;102041.78;5153319;55;1134507;-72
2023/04/03 07:36:22;;;;;;;6.20;1.97;;;;;;;4.06;92.80;102050.53;5062097;55;1134565;-70
2023/04/03 07:41:28;;;;;;;6.43;2.20;;;;;;;4.17;91.92;102060.72;5016611;57;1134763;-69
2023/04/03 07:46:34;;;;;;;5.25;1.87;;;;;;;3.95;90.17;102060.44;5052711;56;1134593;-67
2023/04/03 07:51:40;;;;;;;13.40;2.90;;;;;;;3.89;91.55;102067.98;5100290;56;1134641;-71
2023/04/03 07:56:46;;;;;;;7.00;2.23;;;;;;;3.68;88.65;102072.42;5119786;56;1136667;-70
2023/04/03 08:01:51;;;;;;;6.70;2.03;;;;;;;3.57;87.29;102077.06;5076333;55;1134784;-70
2023/04/03 08:06:57;;;;;;;10.33;2.70;;;;;;;3.67;89.26;102063.30;5016399;57;1134625;-67
2023/04/03 08:12:03;;;;;;;8.23;1.57;;;;;;;4.02;89.33;102068.97;5078634;56;1136846;-70
2023/04/03 08:17:11;;;;;;;7.50;2.57;;;;;;;4.33;86.12;102067.27;5100066;55;1134516;-75
2023/04/03 08:22:17;;;;;;;5.70;2.13;;;;;;;4.17;83.87;102078.59;5122396;55;1134703;-77
2023/04/03 08:27:24;;;;;;;3.77;2.03;;;;;;;4.22;83.48;102079.34;5133026;55;1134630;-78
2023/04/03 08:32:30;;;;;;;2.17;1.47;;;;;;;4.40;83.82;102083.23;5092176;55;1134519;-74
2023/04/03 08:37:38;;;;;;;3.08;1.90;;;;;;;4.43;78.84;102080.99;5016396;57;1134643;-72
2023/04/03 08:43:21;;;;;;;8.05;2.52;;;;;;;4.18;77.46;102081.63;5035673;57;1134666;-77
2023/04/03 08:48:37;;;;;;;5.48;1.86;;;;;;;3.99;79.65;102096.53;4942218;57;1134648;-75
2023/04/03 08:53:59;;;;;;;4.93;1.80;;;;;;;3.88;79.06;102100.73;5045229;56;1134603;-78
2023/04/03 08:59:14;;;;;;;3.33;1.63;;;;;;;3.94;82.30;102097.97;5067189;56;1134768;-73
2023/04/03 09:04:20;;;;;;;3.47;1.60;;;;;;;4.08;73.99;102095.01;5084047;56;1134701;-79
2023/04/03 09:09:41;;;;;;;6.70;3.07;;;;;;;4.06;77.48;102096.80;5100190;55;1134460;-78
2023/04/03 09:15:15;;;;;;;4.60;1.77;;;;;;;4.03;78.20;102099.04;5123956;55;1134502;-73
2023/04/03 09:20:56;;;;;;;6.72;1.80;;;;;;;4.05;79.24;102086.77;5122918;55;1134505;-75
2023/04/03 09:26:20;;;;;;;9.07;1.87;;;;;;;4.44;80.37;102072.20;5127191;55;1134439;-73
2023/04/03 09:31:31;;;;;;;6.30;2.57;;;;;;;5.06;82.67;102075.65;5117170;55;1134605;-78
2023/04/03 09:36:46;;;;;;;8.07;3.23;;;;;;;5.13;79.05;102080.27;5123662;55;1134640;-73
2023/04/03 09:42:04;;;;;;;7.47;2.60;;;;;;;5.00;78.00;102082.86;5155699;55;1134571;-74
2023/04/03 09:47:29;;;;;;;6.20;2.50;;;;;;;4.86;78.24;102074.95;5194144;55;1134700;-76
2023/04/03 09:52:35;;;;;;;9.63;3.22;;;;;;;4.79;79.26;102079.09;5157575;55;1134559;-74
2023/04/03 09:57:41;;;;;;;5.10;2.17;;;;;;;4.90;80.59;102071.77;5102585;56;1134625;-77
2023/04/03 10:02:51;;;;;;;6.67;2.53;;;;;;;5.11;78.57;102074.20;5122105;56;1134614;-74
2023/04/03 10:08:19;;;;;;;5.70;2.70;;;;;;;5.22;78.89;102070.80;5102069;55;1134983;-76
2023/04/03 10:13:25;;;;;;;5.80;2.60;;;;;;;5.27;77.96;102077.64;5156808;55;1134678;-75
2023/04/03 10:18:44;;;;;;;6.27;2.10;;;;;;;5.34;77.44;102070.90;5038276;56;1134686;-76
2023/04/03 10:23:54;;;;;;;10.97;2.20;;;;;;;5.43;74.19;102059.65;5083126;55;1134628;-76
2023/04/03 10:29:28;;;;;;;9.03;3.97;;;;;;;5.60;75.52;102068.30;5062836;56;1136753;-77
2023/04/03 10:34:43;;;;;;;6.50;1.95;;;;;;;5.64;76.29;102065.53;5014515;57;1134744;-75
2023/04/03 10:40:22;;;;;;;5.83;2.03;;;;;;;5.64;71.60;102064.67;5013980;57;1134653;-74
2023/04/03 10:45:47;;;;;;;6.73;2.23;;;;;;;5.66;73.72;102058.89;5056129;56;1134634;-74
2023/04/03 10:51:30;;;;;;;6.37;3.37;;;;;;;5.81;74.54;102055.77;5102066;56;1134593;-74
2023/04/03 10:56:58;;;;;;;7.70;3.07;;;;;;;5.72;71.88;102049.98;5147596;55;1134561;-78
2023/04/03 11:02:26;;;;;;;6.20;2.90;;;;;;;5.68;73.78;102057.08;5129084;56;1134564;-76
2023/04/03 11:07:36;;;;;;;8.27;2.80;;;;;;;6.08;73.77;102046.16;5072482;56;1162064;-78
2023/04/03 11:13:01;;;;;;;7.60;2.50;;;;;;;6.47;72.41;102030.73;5149031;56;1220195;-76
2023/04/03 11:18:16;;;;;;;7.77;2.50;;;;;;;6.48;70.34;102036.39;5133807;55;1134552;-76
2023/04/03 11:23:27;;;;;;;3.13;2.03;;;;;;;6.70;70.30;102029.90;5087967;55;1134497;-73
2023/04/03 11:28:34;;;;;;;6.47;2.50;;;;;;;6.86;69.82;102024.47;5171980;56;1217710;-77
2023/04/03 11:34:36;;;;;;;3.85;2.00;;;;;;;7.14;70.65;102012.86;5124127;55;1134728;-77
2023/04/03 11:40:02;;;;;;;5.75;2.70;;;;;;;7.43;66.49;102005.11;5140110;56;1134564;-78
2023/04/03 11:45:43;;;;;;;7.87;3.50;;;;;;;7.44;65.41;102010.32;5157891;55;1134566;-73
2023/04/03 11:50:50;;;;;;;5.05;2.10;;;;;;;7.08;65.47;102024.93;5024874;57;1182164;-78
2023/04/03 11:56:00;;;;;;;5.90;3.03;;;;;;;6.81;67.05;102021.14;5051721;57;1134714;-75
2023/04/03 12:01:13;;;;;;;9.50;2.70;;;;;;;6.60;67.03;102016.22;4989187;57;1134720;-76
2023/04/03 12:06:23;;;;;;;6.00;2.47;;;;;;;6.64;68.22;102006.45;4925341;57;1134639;-77
2023/04/03 12:11:31;;;;;;;7.87;4.00;;;;;;;6.90;67.81;101995.80;4991116;57;1134776;-78
2023/04/03 12:16:44;;;;;;;7.80;4.37;;;;;;;6.91;68.67;102009.34;5013525;57;1134744;-75
2023/04/03 12:22:00;;;;;;;6.20;2.00;;;;;;;6.84;68.23;102010.52;5032519;57;1134656;-75
2023/04/03 12:27:16;;;;;;;1.53;1.07;;;;;;;7.21;68.40;101998.53;5085614;56;1134758;-72
2023/04/03 12:33:02;;;;;;;6.90;1.70;;;;;;;7.16;64.12;101994.79;5115902;55;1148036;-75
2023/04/03 12:38:44;;;;;;;3.43;2.10;;;;;;;7.21;64.95;101995.90;5124074;55;1239103;-77
2023/04/03 12:44:18;;;;;;;8.00;4.23;;;;;;;7.43;66.30;101998.08;5184163;55;1164691;-79
2023/04/03 12:49:42;;;;;;;8.55;2.42;;;;;;;7.47;65.80;101997.04;5101998;56;1134521;-75
2023/04/03 12:54:49;;;;;;;1.92;1.30;;;;;;;7.28;61.34;102005.28;5083542;55;1134688;-77
2023/04/03 12:59:56;;;;;;;4.35;2.22;;;;;;;7.51;63.73;101991.16;5092210;56;1134749;-77
2023/04/03 13:05:09;;;;;;;7.20;4.10;;;;;;;7.51;63.59;102005.64;5072187;56;1134656;-76
2023/04/03 13:10:18;;;;;;;2.72;1.82;;;;;;;7.26;61.25;102006.65;5072492;56;1134693;-76
2023/04/03 13:15:28;;;;;;;3.43;2.03;;;;;;;7.13;63.03;101998.85;5099512;56;1134639;-75
2023/04/03 13:20:38;;;;;;;4.30;2.57;;;;;;;7.43;62.21;102008.61;5072230;56;1137049;-76
2023/04/03 13:25:47;;;;;;;4.80;2.20;;;;;;;7.73;64.93;101998.58;5083710;55;1134744;-77
2023/04/03 13:31:06;;;;;;;4.75;1.90;;;;;;;7.61;58.31;101995.15;5157779;55;1134688;-74
2023/04/03 13:36:28;;;;;;;1.42;1.30;;;;;;;7.32;59.85;102006.87;5110505;56;1134801;-77
2023/04/03 13:41:38;;;;;;;22.70;5.87;;;;;;;7.25;60.79;101994.41;5114174;55;1134724;-76
2023/04/03 13:46:45;;;;;;;6.17;2.12;;;;;;;7.44;59.00;101995.84;5107311;55;1173054;-77
2023/04/03 13:51:51;;;;;;;20.67;7.17;;;;;;;7.47;60.58;101990.45;5040308;56;1238663;-74
2023/04/03 13:56:59;;;;;;;26.63;11.00;;;;;;;7.35;59.29;101989.16;5048885;56;1243895;-73
2023/04/03 14:02:18;;;;;;;20.30;6.33;;;;;;;7.18;61.68;102003.45;5069629;56;1246122;-75
2023/04/03 14:07:25;;;;;;;12.93;5.00;;;;;;;7.00;60.88;101995.00;5076273;56;1177986;-73
2023/04/03 14:12:34;;;;;;;36.50;13.67;;;;;;;6.97;63.65;101992.02;5141925;55;1225507;-77
2023/04/03 14:17:40;;;;;;;10.75;4.67;;;;;;;7.19;66.30;101991.16;5066197;55;1245441;-77
2023/04/03 14:22:46;;;;;;;5.63;2.80;;;;;;;7.41;62.51;101990.70;5043000;56;1244398;-76
2023/04/03 14:27:53;;;;;;;3.93;2.27;;;;;;;7.62;62.37;101977.97;5075944;56;1134552;-73
2023/04/03 14:33:00;;;;;;;10.33;4.00;;;;;;;7.58;59.44;101979.02;5099902;56;1241166;-74
2023/04/03 14:38:28;;;;;;;5.93;2.27;;;;;;;7.37;61.23;101987.78;5099525;56;1247403;-78
2023/04/03 14:43:34;;;;;;;19.63;7.00;;;;;;;7.20;60.73;101987.61;5099968;56;1243940;-77
2023/04/03 14:48:40;;;;;;;8.95;4.30;;;;;;;6.95;60.05;101985.95;5196209;55;1136961;-76
2023/04/03 14:53:46;;;;;;;22.00;7.25;;;;;;;6.65;62.39;101985.37;5068508;56;1134561;-73
2023/04/03 14:58:56;;;;;;;22.20;8.50;;;;;;;6.58;63.95;101981.24;5112787;55;1136859;-77
2023/04/03 15:04:01;;;;;;;17.20;7.70;;;;;;;6.48;63.14;101972.00;5158344;55;1136869;-76
2023/04/03 15:09:25;;;;;;;32.40;15.80;;;;;;;6.48;63.14;101972.00;5067033;56;1136630;-76
2023/04/03 15:14:30;;;;;;;30.05;14.53;;;;;;;6.47;64.13;101978.16;5090810;56;1138839;-74
2023/04/03 15:19:40;;;;;;;29.10;10.80;;;;;;;6.31;61.27;101980.50;5071412;56;1138750;-75
2023/04/03 15:24:46;;;;;;;16.60;7.53;;;;;;;6.17;61.29;101967.02;5033010;56;1138811;-77
2023/04/03 15:29:51;;;;;;;7.95;4.15;;;;;;;6.15;62.51;101973.23;5056358;56;1136751;-77
2023/04/03 15:34:57;;;;;;;9.13;4.63;;;;;;;6.11;61.69;101965.91;5058123;55;1232986;-76
2023/04/03 15:40:04;;;;;;;7.13;3.07;;;;;;;6.09;62.47;101966.45;5058590;55;1170881;-74
2023/04/03 15:45:10;;;;;;;21.13;7.47;;;;;;;6.14;61.48;101961.00;5097661;55;1134542;-77
2023/04/03 15:50:16;;;;;;;41.47;11.33;;;;;;;6.14;62.21;101963.63;5081609;55;1136800;-77
2023/04/03 15:55:25;;;;;;;19.83;6.00;;;;;;;6.09;62.82;101968.22;5079929;56;1173518;-75
2023/04/03 16:00:31;;;;;;;20.73;7.80;;;;;;;6.02;62.43;101967.56;5110879;55;1163895;-74
2023/04/03 16:05:39;;;;;;;7.90;3.90;;;;;;;5.94;63.60;101969.16;5100049;55;1144135;-76
2023/04/03 16:10:46;;;;;;;21.15;9.33;;;;;;;5.88;64.33;101959.28;5110953;55;1134674;-74
2023/04/03 16:15:51;;;;;;;21.97;10.17;;;;;;;5.88;64.43;101960.17;5072020;56;1136643;-74
2023/04/03 16:20:57;;;;;;;24.83;10.60;;;;;;;5.88;65.26;101966.74;5090906;55;1138711;-76
2023/04/03 16:26:03;;;;;;;26.77;10.53;;;;;;;5.80;64.98;101967.90;5069122;55;1138721;-74
2023/04/03 16:31:09;;;;;;;29.37;11.80;;;;;;;5.67;65.87;101968.75;5134384;55;1139015;-77
2023/04/03 16:36:15;;;;;;;38.43;15.83;;;;;;;5.64;66.52;101964.94;5066816;55;1138909;-76
2023/04/03 16:41:21;;;;;;;33.07;14.10;;;;;;;5.67;67.57;101968.75;5076192;55;1138884;-75
2023/04/03 16:46:27;;;;;;;29.35;11.57;;;;;;;5.65;67.29;101971.91;5088986;55;1138683;-75
2023/04/03 16:51:32;;;;;;;13.67;6.43;;;;;;;5.59;68.49;101977.35;5060998;55;1138893;-74
2023/04/03 16:56:38;;;;;;;26.68;8.95;;;;;;;5.57;69.28;101977.85;5109780;55;1136645;-77
2023/04/03 17:01:44;;;;;;;57.20;18.30;;;;;;;5.51;69.19;101981.98;5058166;55;1136875;-78
2023/04/03 17:06:51;;;;;;;40.50;14.40;;;;;;;5.44;69.95;101972.61;5038180;56;1138953;-75
2023/04/03 17:11:57;;;;;;;50.03;16.97;;;;;;;5.32;71.01;101975.64;5068647;55;1138870;-77
2023/04/03 17:17:04;;;;;;;21.33;8.53;;;;;;;5.23;71.38;101985.52;4982653;57;1138823;-75
2023/04/03 17:22:10;;;;;;;15.50;6.75;;;;;;;5.21;71.79;101991.25;4931131;57;1136788;-77
2023/04/03 17:27:15;;;;;;;13.60;5.20;;;;;;;5.14;71.88;101993.69;4954377;57;1137003;-77
2023/04/03 17:32:21;;;;;;;21.20;7.33;;;;;;;5.09;72.11;101988.17;4903033;57;1136925;-77
2023/04/03 17:37:27;;;;;;;35.43;16.33;;;;;;;5.03;72.15;102000.18;4882659;58;1136687;-76
2023/04/03 17:42:32;;;;;;;39.40;17.83;;;;;;;4.98;72.38;102003.38;4900850;57;1138768;-75
2023/04/03 17:47:38;;;;;;;22.13;9.40;;;;;;;4.93;72.40;102001.75;4941752;57;1138829;-76
2023/04/03 17:52:44;;;;;;;18.85;6.58;;;;;;;4.87;72.61;102003.27;4958750;57;1136738;-77
2023/04/03 17:57:50;;;;;;;18.33;8.73;;;;;;;4.77;72.86;102003.12;4963730;56;1136792;-77
2023/04/03 18:02:56;;;;;;;14.87;7.97;;;;;;;4.77;73.15;102003.56;4946478;55;1136571;-74
2023/04/03 18:08:02;;;;;;;23.33;10.60;;;;;;;4.66;73.55;102003.03;4903160;58;1136845;-76
2023/04/03 18:13:09;;;;;;;28.13;10.70;;;;;;;4.60;74.31;102004.92;4921640;57;1138802;-72
2023/04/03 18:18:14;;;;;;;41.83;15.53;;;;;;;4.59;74.63;102008.44;5044617;57;1138960;-69
2023/04/03 18:23:20;;;;;;;42.70;16.93;;;;;;;4.51;75.03;102009.13;5073179;57;1138907;-72
2023/04/03 18:28:27;;;;;;;42.93;20.77;;;;;;;4.42;75.07;102008.09;4995873;57;1138728;-68
2023/04/03 18:33:33;;;;;;;47.63;21.20;;;;;;;4.32;75.25;102015.78;5028747;57;1138735;-70
2023/04/03 18:38:38;;;;;;;37.17;12.25;;;;;;;4.29;76.09;102021.55;5023401;57;1138929;-69
2023/04/03 18:43:44;;;;;;;56.33;19.43;;;;;;;4.27;76.64;102023.37;5024217;57;1138791;-74
2023/04/03 18:48:50;;;;;;;57.70;18.83;;;;;;;4.26;77.00;102023.83;5022015;57;1138799;-70
2023/04/03 18:53:56;;;;;;;64.37;19.63;;;;;;;4.28;77.33;102022.00;4994796;57;1138782;-72
2023/04/03 18:59:01;;;;;;;33.37;11.53;;;;;;;4.30;77.68;102012.80;4953231;57;1138826;-72
2023/04/03 19:04:08;;;;;;;20.57;9.13;;;;;;;4.23;77.91;102018.22;4979608;57;1138737;-73
2023/04/03 19:09:14;;;;;;;31.03;11.97;;;;;;;4.18;78.16;102017.47;4994527;58;1136646;-75
2023/04/03 19:14:20;;;;;;;19.80;6.03;;;;;;;4.13;78.41;102018.04;5003838;57;1138952;-74
2023/04/03 19:19:25;;;;;;;23.60;8.28;;;;;;;4.05;78.12;102016.09;5076037;56;1136678;-73
2023/04/03 19:24:31;;;;;;;35.13;11.43;;;;;;;3.92;78.30;102012.53;5097866;56;1136621;-73
2023/04/03 19:29:37;;;;;;;23.40;8.53;;;;;;;3.81;78.14;102011.52;5110824;56;1138820;-75
2023/04/03 19:34:42;;;;;;;26.53;11.37;;;;;;;3.73;78.42;102018.23;5171064;55;1136653;-74
2023/04/03 19:39:48;;;;;;;21.87;8.97;;;;;;;3.70;78.70;102016.99;5127434;55;1138864;-73
2023/04/03 19:44:54;;;;;;;34.00;15.50;;;;;;;3.69;78.96;102027.05;5156919;55;1136692;-74
2023/04/03 19:49:59;;;;;;;48.73;18.77;;;;;;;3.62;78.87;102029.42;5189843;55;1138710;-74
2023/04/03 19:55:05;;;;;;;48.47;18.07;;;;;;;3.56;79.01;102023.02;5133779;55;1139026;-74
2023/04/03 20:00:12;;;;;;;33.57;16.13;;;;;;;3.51;79.33;102019.20;5093887;55;1138980;-76
2023/04/03 20:05:18;;;;;;;30.70;14.33;;;;;;;3.44;79.42;102024.63;5148321;55;1138776;-77
2023/04/03 20:10:25;;;;;;;22.82;9.08;;;;;;;3.33;79.86;102028.82;5119875;54;1138820;-76
2023/04/03 20:15:38;;;;;;;38.47;13.27;;;;;;;3.26;80.08;102026.37;5098869;55;1136594;-77
2023/04/03 20:20:40;;;;;;;35.20;14.07;;;;;;;3.21;80.31;102023.85;5034691;55;1138749;-76
2023/04/03 20:25:48;;;;;;;23.13;10.40;;;;;;;3.18;80.73;102030.04;5064750;56;1138855;-76
2023/04/03 20:30:54;;;;;;;15.37;7.90;;;;;;;3.24;80.90;102026.84;5057255;55;1138859;-75
2023/04/03 20:36:01;;;;;;;22.93;8.57;;;;;;;3.13;79.68;102016.20;5105302;55;1136578;-74
2023/04/03 20:41:07;;;;;;;15.33;7.00;;;;;;;2.85;79.14;102036.45;5125726;55;1136934;-74
2023/04/03 20:46:13;;;;;;;17.37;7.13;;;;;;;2.85;79.14;102036.45;5131258;55;1136695;-76
2023/04/03 20:51:20;;;;;;;13.03;5.67;;;;;;;2.70;78.83;102032.41;5116307;55;1136808;-76
2023/04/03 20:56:31;;;;;;;17.47;7.70;;;;;;;2.57;79.34;102025.73;5113010;55;1136748;-75
2023/04/03 21:01:36;;;;;;;27.98;9.35;;;;;;;2.55;79.54;102025.75;5061080;55;1136906;-75
2023/04/03 21:07:43;;;;;;;27.70;7.90;;;;;;;2.50;78.85;102024.98;5080303;55;1136775;-76
2023/04/03 21:13:37;;;;;;;23.15;6.03;;;;;;;2.37;78.18;102032.64;5130619;55;1136651;-76
2023/04/03 21:19:08;;;;;;;17.95;4.67;;;;;;;2.22;78.26;102027.72;5168657;55;1136836;-75
2023/04/03 21:24:17;;;;;;;19.77;6.53;;;;;;;2.10;78.42;102021.84;5208584;55;1136824;-74
2023/04/03 21:29:23;;;;;;;17.73;7.30;;;;;;;2.07;78.75;102024.95;5188581;55;1136728;-76
2023/04/03 21:34:31;;;;;;;25.45;7.12;;;;;;;2.07;79.04;102021.89;5188540;55;1136660;-75
2023/04/03 21:39:37;;;;;;;15.57;5.90;;;;;;;2.16;79.19;102019.98;5107248;55;1136847;-74
2023/04/03 21:44:42;;;;;;;22.60;7.67;;;;;;;2.19;79.03;102014.72;5043018;56;1136671;-74
2023/04/03 21:49:48;;;;;;;14.00;5.63;;;;;;;2.23;79.03;102027.69;5088140;56;1136766;-76
2023/04/03 21:54:54;;;;;;;15.97;6.67;;;;;;;2.17;78.84;102023.02;5022407;56;1136619;-76
2023/04/03 21:59:59;;;;;;;22.07;7.10;;;;;;;2.13;78.86;102027.45;5045572;56;1136677;-75
2023/04/03 22:05:05;;;;;;;17.30;6.27;;;;;;;2.11;79.22;102027.92;5015606;57;1136743;-74
2023/04/03 22:10:11;;;;;;;40.23;14.33;;;;;;;2.09;78.72;102031.00;5015800;57;1136662;-75
2023/04/03 22:15:17;;;;;;;28.47;9.97;;;;;;;2.04;79.09;102030.22;5034953;57;1138977;-75
2023/04/03 22:20:22;;;;;;;35.13;11.30;;;;;;;2.06;79.43;102033.22;5051557;56;1136869;-74
2023/04/03 22:25:30;;;;;;;38.10;14.03;;;;;;;2.08;79.56;102030.59;5018894;56;1138940;-74
2023/04/03 22:30:35;;;;;;;57.85;19.67;;;;;;;2.11;79.79;102030.53;5004787;57;1138985;-75
2023/04/03 22:35:49;;;;;;;63.57;19.40;;;;;;;2.10;79.56;102029.67;5034841;57;1138768;-76
2023/04/03 22:41:03;;;;;;;27.00;9.83;;;;;;;2.02;79.21;102024.16;5015274;57;1138736;-73
2023/04/03 22:46:10;;;;;;;18.23;6.57;;;;;;;1.86;79.03;102030.54;5045584;56;1136545;-73
2023/04/03 22:51:15;;;;;;;12.60;5.23;;;;;;;1.86;79.97;102031.40;5129197;55;1136713;-74
2023/04/03 22:56:21;;;;;;;31.77;8.70;;;;;;;1.92;80.58;102019.56;5107230;55;1136681;-74
2023/04/03 23:01:28;;;;;;;120.20;38.08;;;;;;;2.01;80.81;102022.44;5016503;55;1136773;-74
2023/04/03 23:06:33;;;;;;;104.37;32.93;;;;;;;2.01;80.45;102014.61;5035052;56;1141015;-74
2023/04/03 23:11:39;;;;;;;116.37;39.10;;;;;;;1.96;80.28;102015.16;5084259;56;1142684;-73
2023/04/03 23:16:45;;;;;;;64.93;20.17;;;;;;;1.97;80.82;102016.88;5121468;55;1140942;-74
2023/04/03 23:21:51;;;;;;;40.80;10.93;;;;;;;1.91;80.28;102016.98;5206675;55;1139326;-72
2023/04/03 23:26:56;;;;;;;38.10;11.23;;;;;;;1.91;80.61;102013.93;5186407;55;1138742;-74